sensor_id;sensor_type;location;lat;lon;timestamp;P1;durP1;ratioP1;P2;durP2;ratioP2
27744;SDS011;61387;48.112;8.616;2022-12-18T00:01:37;37.83;;;16.10;;
27744;SDS011;61387;48.112;8.616;2022-12-18T00:04:04;31.80;;;15.67;;
27744;SDS011;61387;48.112;8.616;2022-12-18T00:06:33;29.67;;;15.60;;
27744;SDS011;61387;48.112;8.616;2022-12-18T00:09:00;30.53;;;14.87;;
27744;SDS011;61387;48.112;8.616;2022-12-18T00:11:28;35.60;;;15.60;;
27744;SDS011;61387;48.112;8.616;2022-12-18T00:13:56;33.47;;;16.60;;
27744;SDS011;61387;48.112;8.616;2022-12-18T00:16:23;35.63;;;15.53;;
27744;SDS011;61387;48.112;8.616;2022-12-18T00:18:55;37.30;;;16.73;;
27744;SDS011;61387;48.112;8.616;2022-12-18T00:21:22;33.40;;;17.73;;
27744;SDS011;61387;48.112;8.616;2022-12-18T00:23:50;35.05;;;18.08;;
27744;SDS011;61387;48.112;8.616;2022-12-18T00:26:20;38.40;;;18.17;;
27744;SDS011;61387;48.112;8.616;2022-12-18T00:28:49;37.03;;;18.03;;
27744;SDS011;61387;48.112;8.616;2022-12-18T00:31:16;39.67;;;18.30;;
27744;SDS011;61387;48.112;8.616;2022-12-18T00:33:44;38.30;;;18.97;;
27744;SDS011;61387;48.112;8.616;2022-12-18T00:36:12;42.63;;;17.97;;
27744;SDS011;61387;48.112;8.616;2022-12-18T00:38:40;31.40;;;16.90;;
27744;SDS011;61387;48.112;8.616;2022-12-18T00:41:06;41.40;;;19.57;;
27744;SDS011;61387;48.112;8.616;2022-12-18T00:43:34;35.13;;;18.93;;
27744;SDS011;61387;48.112;8.616;2022-12-18T00:45:59;37.50;;;17.97;;
27744;SDS011;61387;48.112;8.616;2022-12-18T00:48:25;37.30;;;17.50;;
27744;SDS011;61387;48.112;8.616;2022-12-18T00:50:51;36.83;;;16.90;;
27744;SDS011;61387;48.112;8.616;2022-12-18T00:53:17;36.37;;;17.03;;
27744;SDS011;61387;48.112;8.616;2022-12-18T00:55:44;36.97;;;17.57;;
27744;SDS011;61387;48.112;8.616;2022-12-18T00:58:10;39.03;;;18.60;;
27744;SDS011;61387;48.112;8.616;2022-12-18T01:00:36;35.50;;;16.90;;
27744;SDS011;61387;48.112;8.616;2022-12-18T01:03:03;34.43;;;17.73;;
27744;SDS011;61387;48.112;8.616;2022-12-18T01:05:29;36.53;;;17.63;;
27744;SDS011;61387;48.112;8.616;2022-12-18T01:07:55;34.90;;;16.73;;
27744;SDS011;61387;48.112;8.616;2022-12-18T01:10:22;38.37;;;18.03;;
27744;SDS011;61387;48.112;8.616;2022-12-18T01:12:48;34.03;;;16.00;;
27744;SDS011;61387;48.112;8.616;2022-12-18T01:15:14;38.27;;;16.57;;
27744;SDS011;61387;48.112;8.616;2022-12-18T01:17:40;39.83;;;16.63;;
27744;SDS011;61387;48.112;8.616;2022-12-18T01:20:06;38.43;;;15.70;;
27744;SDS011;61387;48.112;8.616;2022-12-18T01:22:34;38.90;;;15.80;;
27744;SDS011;61387;48.112;8.616;2022-12-18T01:25:00;36.77;;;16.43;;
27744;SDS011;61387;48.112;8.616;2022-12-18T01:27:26;39.87;;;15.80;;
27744;SDS011;61387;48.112;8.616;2022-12-18T01:29:52;39.97;;;16.33;;
27744;SDS011;61387;48.112;8.616;2022-12-18T01:32:18;38.53;;;15.77;;
27744;SDS011;61387;48.112;8.616;2022-12-18T01:34:44;43.70;;;15.97;;
27744;SDS011;61387;48.112;8.616;2022-12-18T01:37:10;41.57;;;15.47;;
27744;SDS011;61387;48.112;8.616;2022-12-18T01:39:36;43.50;;;15.73;;
27744;SDS011;61387;48.112;8.616;2022-12-18T01:42:02;39.93;;;16.17;;
27744;SDS011;61387;48.112;8.616;2022-12-18T01:47:20;46.50;;;17.20;;
27744;SDS011;61387;48.112;8.616;2022-12-18T01:52:31;48.43;;;18.87;;
27744;SDS011;61387;48.112;8.616;2022-12-18T01:54:58;53.97;;;19.63;;
27744;SDS011;61387;48.112;8.616;2022-12-18T01:57:25;45.40;;;17.30;;
27744;SDS011;61387;48.112;8.616;2022-12-18T01:59:52;49.93;;;18.13;;
27744;SDS011;61387;48.112;8.616;2022-12-18T02:02:20;52.27;;;19.47;;
27744;SDS011;61387;48.112;8.616;2022-12-18T02:04:46;46.07;;;17.70;;
27744;SDS011;61387;48.112;8.616;2022-12-18T02:07:31;42.23;;;17.10;;
27744;SDS011;61387;48.112;8.616;2022-12-18T02:10:00;44.73;;;16.40;;
27744;SDS011;61387;48.112;8.616;2022-12-18T02:13:01;44.47;;;17.03;;
27744;SDS011;61387;48.112;8.616;2022-12-18T02:15:44;46.07;;;17.07;;
27744;SDS011;61387;48.112;8.616;2022-12-18T02:18:28;46.20;;;16.03;;
27744;SDS011;61387;48.112;8.616;2022-12-18T02:21:08;42.03;;;17.67;;
27744;SDS011;61387;48.112;8.616;2022-12-18T02:23:52;41.33;;;16.27;;
27744;SDS011;61387;48.112;8.616;2022-12-18T02:29:38;41.53;;;15.57;;
27744;SDS011;61387;48.112;8.616;2022-12-18T02:32:26;44.70;;;16.90;;
27744;SDS011;61387;48.112;8.616;2022-12-18T02:34:55;41.93;;;16.77;;
27744;SDS011;61387;48.112;8.616;2022-12-18T02:37:22;43.67;;;15.87;;
27744;SDS011;61387;48.112;8.616;2022-12-18T02:39:49;43.37;;;17.00;;
27744;SDS011;61387;48.112;8.616;2022-12-18T02:42:18;39.27;;;16.00;;
27744;SDS011;61387;48.112;8.616;2022-12-18T02:44:45;43.30;;;17.20;;
27744;SDS011;61387;48.112;8.616;2022-12-18T02:47:12;40.13;;;16.50;;
27744;SDS011;61387;48.112;8.616;2022-12-18T02:49:44;41.83;;;15.83;;
27744;SDS011;61387;48.112;8.616;2022-12-18T02:52:35;49.10;;;17.70;;
27744;SDS011;61387;48.112;8.616;2022-12-18T02:55:19;40.67;;;16.13;;
27744;SDS011;61387;48.112;8.616;2022-12-18T02:58:20;45.83;;;16.93;;
27744;SDS011;61387;48.112;8.616;2022-12-18T03:04:23;44.10;;;16.17;;
27744;SDS011;61387;48.112;8.616;2022-12-18T03:06:55;40.60;;;16.07;;
27744;SDS011;61387;48.112;8.616;2022-12-18T03:09:32;41.40;;;15.47;;
27744;SDS011;61387;48.112;8.616;2022-12-18T03:12:06;39.37;;;16.07;;
27744;SDS011;61387;48.112;8.616;2022-12-18T03:15:35;44.97;;;16.70;;
27744;SDS011;61387;48.112;8.616;2022-12-18T03:17:40;40.07;;;16.00;;
27744;SDS011;61387;48.112;8.616;2022-12-18T03:20:15;40.37;;;16.07;;
27744;SDS011;61387;48.112;8.616;2022-12-18T03:22:45;43.70;;;16.17;;
27744;SDS011;61387;48.112;8.616;2022-12-18T03:25:14;40.93;;;16.63;;
27744;SDS011;61387;48.112;8.616;2022-12-18T03:27:44;39.80;;;15.40;;
27744;SDS011;61387;48.112;8.616;2022-12-18T03:30:14;40.90;;;16.10;;
27744;SDS011;61387;48.112;8.616;2022-12-18T03:35:06;42.07;;;15.93;;
27744;SDS011;61387;48.112;8.616;2022-12-18T03:37:36;43.47;;;16.20;;
27744;SDS011;61387;48.112;8.616;2022-12-18T03:40:03;38.97;;;15.17;;
27744;SDS011;61387;48.112;8.616;2022-12-18T03:48:07;38.83;;;14.77;;
27744;SDS011;61387;48.112;8.616;2022-12-18T03:50:36;43.70;;;15.67;;
27744;SDS011;61387;48.112;8.616;2022-12-18T03:55:56;37.97;;;14.43;;
27744;SDS011;61387;48.112;8.616;2022-12-18T03:58:25;39.37;;;15.87;;
27744;SDS011;61387;48.112;8.616;2022-12-18T04:00:55;40.43;;;15.57;;
27744;SDS011;61387;48.112;8.616;2022-12-18T04:03:24;29.67;;;12.67;;
27744;SDS011;61387;48.112;8.616;2022-12-18T04:05:52;32.00;;;14.37;;
27744;SDS011;61387;48.112;8.616;2022-12-18T04:08:20;41.27;;;14.93;;
27744;SDS011;61387;48.112;8.616;2022-12-18T04:10:46;38.83;;;14.53;;
27744;SDS011;61387;48.112;8.616;2022-12-18T04:13:13;42.17;;;16.03;;
27744;SDS011;61387;48.112;8.616;2022-12-18T04:15:52;38.47;;;15.67;;
27744;SDS011;61387;48.112;8.616;2022-12-18T04:18:18;46.37;;;15.67;;
27744;SDS011;61387;48.112;8.616;2022-12-18T04:20:44;41.70;;;16.70;;
27744;SDS011;61387;48.112;8.616;2022-12-18T04:23:10;37.00;;;14.80;;
27744;SDS011;61387;48.112;8.616;2022-12-18T04:25:36;41.60;;;15.43;;
27744;SDS011;61387;48.112;8.616;2022-12-18T04:28:02;45.20;;;17.60;;
27744;SDS011;61387;48.112;8.616;2022-12-18T04:30:28;42.13;;;15.55;;
27744;SDS011;61387;48.112;8.616;2022-12-18T04:32:53;41.83;;;15.33;;
27744;SDS011;61387;48.112;8.616;2022-12-18T04:35:19;40.50;;;15.93;;
27744;SDS011;61387;48.112;8.616;2022-12-18T04:37:45;44.10;;;15.73;;
27744;SDS011;61387;48.112;8.616;2022-12-18T04:40:11;43.60;;;16.93;;
27744;SDS011;61387;48.112;8.616;2022-12-18T04:42:38;37.90;;;15.97;;
27744;SDS011;61387;48.112;8.616;2022-12-18T04:45:05;39.47;;;15.80;;
27744;SDS011;61387;48.112;8.616;2022-12-18T04:47:31;39.30;;;15.10;;
27744;SDS011;61387;48.112;8.616;2022-12-18T04:49:57;40.13;;;15.53;;
27744;SDS011;61387;48.112;8.616;2022-12-18T04:52:23;40.30;;;16.07;;
27744;SDS011;61387;48.112;8.616;2022-12-18T04:54:49;40.50;;;15.93;;
27744;SDS011;61387;48.112;8.616;2022-12-18T04:57:15;42.93;;;16.33;;
27744;SDS011;61387;48.112;8.616;2022-12-18T04:59:42;36.00;;;14.90;;
27744;SDS011;61387;48.112;8.616;2022-12-18T05:02:08;38.57;;;15.67;;
27744;SDS011;61387;48.112;8.616;2022-12-18T05:04:34;38.43;;;14.90;;
27744;SDS011;61387;48.112;8.616;2022-12-18T05:07:00;42.83;;;16.47;;
27744;SDS011;61387;48.112;8.616;2022-12-18T05:09:26;38.30;;;14.73;;
27744;SDS011;61387;48.112;8.616;2022-12-18T05:11:52;41.60;;;15.63;;
27744;SDS011;61387;48.112;8.616;2022-12-18T05:14:18;44.00;;;15.40;;
27744;SDS011;61387;48.112;8.616;2022-12-18T05:16:44;39.73;;;15.13;;
27744;SDS011;61387;48.112;8.616;2022-12-18T05:19:10;37.90;;;15.33;;
27744;SDS011;61387;48.112;8.616;2022-12-18T05:21:36;40.33;;;14.87;;
27744;SDS011;61387;48.112;8.616;2022-12-18T05:24:02;41.07;;;15.73;;
27744;SDS011;61387;48.112;8.616;2022-12-18T05:26:28;32.67;;;14.00;;
27744;SDS011;61387;48.112;8.616;2022-12-18T05:28:54;44.92;;;16.08;;
27744;SDS011;61387;48.112;8.616;2022-12-18T05:31:20;43.07;;;15.73;;
27744;SDS011;61387;48.112;8.616;2022-12-18T05:33:46;40.47;;;16.57;;
27744;SDS011;61387;48.112;8.616;2022-12-18T05:36:12;47.23;;;17.43;;
27744;SDS011;61387;48.112;8.616;2022-12-18T05:38:38;42.40;;;17.03;;
27744;SDS011;61387;48.112;8.616;2022-12-18T05:41:05;44.97;;;15.03;;
27744;SDS011;61387;48.112;8.616;2022-12-18T05:43:31;41.70;;;16.23;;
27744;SDS011;61387;48.112;8.616;2022-12-18T05:45:57;43.30;;;16.67;;
27744;SDS011;61387;48.112;8.616;2022-12-18T05:48:23;44.57;;;15.17;;
27744;SDS011;61387;48.112;8.616;2022-12-18T05:50:49;42.73;;;16.00;;
27744;SDS011;61387;48.112;8.616;2022-12-18T05:53:16;50.40;;;17.03;;
27744;SDS011;61387;48.112;8.616;2022-12-18T05:55:44;44.67;;;15.47;;
27744;SDS011;61387;48.112;8.616;2022-12-18T05:58:11;43.50;;;15.23;;
27744;SDS011;61387;48.112;8.616;2022-12-18T06:00:38;47.83;;;16.47;;
27744;SDS011;61387;48.112;8.616;2022-12-18T06:03:06;41.40;;;16.30;;
27744;SDS011;61387;48.112;8.616;2022-12-18T06:05:35;44.00;;;16.87;;
27744;SDS011;61387;48.112;8.616;2022-12-18T06:08:02;42.03;;;15.93;;
27744;SDS011;61387;48.112;8.616;2022-12-18T06:10:28;37.90;;;13.97;;
27744;SDS011;61387;48.112;8.616;2022-12-18T06:12:54;48.13;;;17.60;;
27744;SDS011;61387;48.112;8.616;2022-12-18T06:15:20;41.80;;;16.17;;
27744;SDS011;61387;48.112;8.616;2022-12-18T06:17:46;45.93;;;17.10;;
27744;SDS011;61387;48.112;8.616;2022-12-18T06:20:12;51.97;;;18.17;;
27744;SDS011;61387;48.112;8.616;2022-12-18T06:22:38;48.13;;;17.93;;
27744;SDS011;61387;48.112;8.616;2022-12-18T06:25:04;50.00;;;18.40;;
27744;SDS011;61387;48.112;8.616;2022-12-18T06:27:30;44.77;;;17.43;;
27744;SDS011;61387;48.112;8.616;2022-12-18T06:29:58;55.00;;;18.13;;
27744;SDS011;61387;48.112;8.616;2022-12-18T06:32:24;46.20;;;17.13;;
27744;SDS011;61387;48.112;8.616;2022-12-18T06:34:50;48.67;;;16.20;;
27744;SDS011;61387;48.112;8.616;2022-12-18T06:37:16;45.33;;;17.37;;
27744;SDS011;61387;48.112;8.616;2022-12-18T06:39:42;48.33;;;17.70;;
27744;SDS011;61387;48.112;8.616;2022-12-18T06:42:08;49.10;;;17.57;;
27744;SDS011;61387;48.112;8.616;2022-12-18T06:44:34;50.53;;;17.60;;
27744;SDS011;61387;48.112;8.616;2022-12-18T06:46:59;47.03;;;16.97;;
27744;SDS011;61387;48.112;8.616;2022-12-18T06:49:25;59.30;;;18.43;;
27744;SDS011;61387;48.112;8.616;2022-12-18T06:51:51;51.27;;;17.43;;
27744;SDS011;61387;48.112;8.616;2022-12-18T06:54:17;36.93;;;15.20;;
27744;SDS011;61387;48.112;8.616;2022-12-18T06:56:44;48.00;;;17.43;;
27744;SDS011;61387;48.112;8.616;2022-12-18T06:59:10;51.37;;;17.23;;
27744;SDS011;61387;48.112;8.616;2022-12-18T07:01:36;45.53;;;16.53;;
27744;SDS011;61387;48.112;8.616;2022-12-18T07:04:02;48.90;;;17.70;;
27744;SDS011;61387;48.112;8.616;2022-12-18T07:06:28;55.03;;;16.83;;
27744;SDS011;61387;48.112;8.616;2022-12-18T07:08:54;49.67;;;16.60;;
27744;SDS011;61387;48.112;8.616;2022-12-18T07:11:21;51.33;;;17.83;;
27744;SDS011;61387;48.112;8.616;2022-12-18T07:13:47;51.97;;;18.70;;
27744;SDS011;61387;48.112;8.616;2022-12-18T07:16:14;50.87;;;17.67;;
27744;SDS011;61387;48.112;8.616;2022-12-18T07:18:41;49.57;;;17.33;;
27744;SDS011;61387;48.112;8.616;2022-12-18T07:21:08;48.47;;;18.33;;
27744;SDS011;61387;48.112;8.616;2022-12-18T07:23:36;47.73;;;17.37;;
27744;SDS011;61387;48.112;8.616;2022-12-18T07:26:03;47.53;;;16.37;;
27744;SDS011;61387;48.112;8.616;2022-12-18T07:28:29;47.97;;;16.83;;
27744;SDS011;61387;48.112;8.616;2022-12-18T07:30:55;46.83;;;16.37;;
27744;SDS011;61387;48.112;8.616;2022-12-18T07:33:21;44.87;;;17.03;;
27744;SDS011;61387;48.112;8.616;2022-12-18T07:35:47;54.27;;;18.50;;
27744;SDS011;61387;48.112;8.616;2022-12-18T07:38:13;47.97;;;17.40;;
27744;SDS011;61387;48.112;8.616;2022-12-18T07:40:38;51.77;;;17.87;;
27744;SDS011;61387;48.112;8.616;2022-12-18T07:43:04;43.67;;;16.70;;
27744;SDS011;61387;48.112;8.616;2022-12-18T07:45:30;48.63;;;17.57;;
27744;SDS011;61387;48.112;8.616;2022-12-18T07:47:56;48.47;;;16.90;;
27744;SDS011;61387;48.112;8.616;2022-12-18T07:50:22;48.83;;;17.17;;
27744;SDS011;61387;48.112;8.616;2022-12-18T07:52:48;56.07;;;17.43;;
27744;SDS011;61387;48.112;8.616;2022-12-18T07:55:15;50.83;;;17.30;;
27744;SDS011;61387;48.112;8.616;2022-12-18T07:57:41;49.17;;;18.17;;
27744;SDS011;61387;48.112;8.616;2022-12-18T08:00:07;47.20;;;17.67;;
27744;SDS011;61387;48.112;8.616;2022-12-18T08:02:33;51.07;;;19.20;;
27744;SDS011;61387;48.112;8.616;2022-12-18T08:04:59;56.27;;;18.57;;
27744;SDS011;61387;48.112;8.616;2022-12-18T08:07:25;64.80;;;29.27;;
27744;SDS011;61387;48.112;8.616;2022-12-18T08:09:51;52.80;;;20.43;;
27744;SDS011;61387;48.112;8.616;2022-12-18T08:12:17;56.20;;;18.87;;
27744;SDS011;61387;48.112;8.616;2022-12-18T08:14:42;61.17;;;29.13;;
27744;SDS011;61387;48.112;8.616;2022-12-18T08:17:08;48.93;;;18.17;;
27744;SDS011;61387;48.112;8.616;2022-12-18T08:19:35;44.27;;;16.50;;
27744;SDS011;61387;48.112;8.616;2022-12-18T08:22:01;56.23;;;18.03;;
27744;SDS011;61387;48.112;8.616;2022-12-18T08:24:27;55.80;;;19.17;;
27744;SDS011;61387;48.112;8.616;2022-12-18T08:26:53;45.40;;;16.83;;
27744;SDS011;61387;48.112;8.616;2022-12-18T08:29:19;42.53;;;16.10;;
27744;SDS011;61387;48.112;8.616;2022-12-18T08:31:45;41.63;;;16.93;;
27744;SDS011;61387;48.112;8.616;2022-12-18T08:34:10;46.50;;;17.13;;
27744;SDS011;61387;48.112;8.616;2022-12-18T08:36:36;49.60;;;17.73;;
27744;SDS011;61387;48.112;8.616;2022-12-18T08:39:02;50.10;;;18.87;;
27744;SDS011;61387;48.112;8.616;2022-12-18T08:41:28;49.80;;;17.53;;
27744;SDS011;61387;48.112;8.616;2022-12-18T08:43:54;48.47;;;18.30;;
27744;SDS011;61387;48.112;8.616;2022-12-18T08:46:40;51.53;;;19.47;;
27744;SDS011;61387;48.112;8.616;2022-12-18T08:49:07;48.77;;;17.70;;
27744;SDS011;61387;48.112;8.616;2022-12-18T08:51:33;51.90;;;18.13;;
27744;SDS011;61387;48.112;8.616;2022-12-18T08:54:01;49.10;;;18.33;;
27744;SDS011;61387;48.112;8.616;2022-12-18T08:56:35;59.57;;;21.40;;
27744;SDS011;61387;48.112;8.616;2022-12-18T08:59:01;64.03;;;21.97;;
27744;SDS011;61387;48.112;8.616;2022-12-18T09:01:27;50.07;;;18.23;;
27744;SDS011;61387;48.112;8.616;2022-12-18T09:03:53;50.17;;;20.13;;
27744;SDS011;61387;48.112;8.616;2022-12-18T09:06:19;52.10;;;19.37;;
27744;SDS011;61387;48.112;8.616;2022-12-18T09:08:46;53.67;;;21.20;;
27744;SDS011;61387;48.112;8.616;2022-12-18T09:11:18;55.97;;;19.80;;
27744;SDS011;61387;48.112;8.616;2022-12-18T09:13:48;40.63;;;17.90;;
27744;SDS011;61387;48.112;8.616;2022-12-18T09:16:14;44.00;;;18.07;;
27744;SDS011;61387;48.112;8.616;2022-12-18T09:18:40;59.20;;;20.63;;
27744;SDS011;61387;48.112;8.616;2022-12-18T09:21:08;45.70;;;19.07;;
27744;SDS011;61387;48.112;8.616;2022-12-18T09:23:40;56.87;;;19.20;;
27744;SDS011;61387;48.112;8.616;2022-12-18T09:26:06;54.33;;;20.27;;
27744;SDS011;61387;48.112;8.616;2022-12-18T09:28:32;47.37;;;18.50;;
27744;SDS011;61387;48.112;8.616;2022-12-18T09:31:03;50.33;;;19.47;;
27744;SDS011;61387;48.112;8.616;2022-12-18T09:33:31;49.97;;;19.43;;
27744;SDS011;61387;48.112;8.616;2022-12-18T09:35:57;51.77;;;18.97;;
27744;SDS011;61387;48.112;8.616;2022-12-18T09:38:23;52.70;;;20.47;;
27744;SDS011;61387;48.112;8.616;2022-12-18T09:40:51;53.10;;;18.63;;
27744;SDS011;61387;48.112;8.616;2022-12-18T09:43:28;50.50;;;18.47;;
27744;SDS011;61387;48.112;8.616;2022-12-18T09:45:59;46.90;;;19.43;;
27744;SDS011;61387;48.112;8.616;2022-12-18T09:48:40;51.13;;;19.33;;
27744;SDS011;61387;48.112;8.616;2022-12-18T09:51:14;50.90;;;18.77;;
27744;SDS011;61387;48.112;8.616;2022-12-18T09:53:49;48.97;;;18.90;;
27744;SDS011;61387;48.112;8.616;2022-12-18T09:56:18;55.07;;;21.27;;
27744;SDS011;61387;48.112;8.616;2022-12-18T09:58:53;54.50;;;20.47;;
27744;SDS011;61387;48.112;8.616;2022-12-18T10:01:23;53.30;;;19.53;;
27744;SDS011;61387;48.112;8.616;2022-12-18T10:03:49;50.33;;;20.70;;
27744;SDS011;61387;48.112;8.616;2022-12-18T10:08:54;54.33;;;21.57;;
27744;SDS011;61387;48.112;8.616;2022-12-18T10:14:02;46.23;;;19.17;;
27744;SDS011;61387;48.112;8.616;2022-12-18T10:19:18;47.47;;;19.20;;
27744;SDS011;61387;48.112;8.616;2022-12-18T10:22:02;42.90;;;17.17;;
27744;SDS011;61387;48.112;8.616;2022-12-18T10:24:36;48.07;;;18.80;;
27744;SDS011;61387;48.112;8.616;2022-12-18T10:27:14;53.17;;;21.33;;
27744;SDS011;61387;48.112;8.616;2022-12-18T10:29:42;48.20;;;19.03;;
27744;SDS011;61387;48.112;8.616;2022-12-18T10:32:12;52.07;;;19.90;;
27744;SDS011;61387;48.112;8.616;2022-12-18T10:34:47;54.80;;;20.53;;
27744;SDS011;61387;48.112;8.616;2022-12-18T10:37:18;54.20;;;21.07;;
27744;SDS011;61387;48.112;8.616;2022-12-18T10:39:46;46.83;;;18.27;;
27744;SDS011;61387;48.112;8.616;2022-12-18T10:42:29;51.50;;;20.90;;
27744;SDS011;61387;48.112;8.616;2022-12-18T10:47:35;48.67;;;19.77;;
27744;SDS011;61387;48.112;8.616;2022-12-18T10:50:01;51.53;;;20.87;;
27744;SDS011;61387;48.112;8.616;2022-12-18T10:52:27;51.97;;;21.37;;
27744;SDS011;61387;48.112;8.616;2022-12-18T10:55:01;51.00;;;21.23;;
27744;SDS011;61387;48.112;8.616;2022-12-18T10:57:30;51.33;;;20.87;;
27744;SDS011;61387;48.112;8.616;2022-12-18T10:59:58;50.53;;;19.80;;
27744;SDS011;61387;48.112;8.616;2022-12-18T11:02:38;51.90;;;19.93;;
27744;SDS011;61387;48.112;8.616;2022-12-18T11:07:48;50.03;;;20.27;;
27744;SDS011;61387;48.112;8.616;2022-12-18T11:10:16;54.63;;;22.90;;
27744;SDS011;61387;48.112;8.616;2022-12-18T11:12:43;54.97;;;22.17;;
27744;SDS011;61387;48.112;8.616;2022-12-18T11:15:43;50.17;;;20.60;;
27744;SDS011;61387;48.112;8.616;2022-12-18T11:18:01;49.70;;;19.97;;
27744;SDS011;61387;48.112;8.616;2022-12-18T11:20:31;45.97;;;18.97;;
27744;SDS011;61387;48.112;8.616;2022-12-18T11:25:26;50.10;;;21.27;;
27744;SDS011;61387;48.112;8.616;2022-12-18T11:28:03;54.23;;;21.17;;
27744;SDS011;61387;48.112;8.616;2022-12-18T11:30:33;47.00;;;18.97;;
27744;SDS011;61387;48.112;8.616;2022-12-18T11:33:05;56.43;;;21.30;;
27744;SDS011;61387;48.112;8.616;2022-12-18T11:38:10;54.03;;;20.30;;
27744;SDS011;61387;48.112;8.616;2022-12-18T11:40:44;55.87;;;21.30;;
27744;SDS011;61387;48.112;8.616;2022-12-18T11:43:16;51.57;;;21.07;;
27744;SDS011;61387;48.112;8.616;2022-12-18T11:45:50;51.53;;;21.13;;
27744;SDS011;61387;48.112;8.616;2022-12-18T11:48:41;50.10;;;19.57;;
27744;SDS011;61387;48.112;8.616;2022-12-18T11:51:25;51.43;;;20.73;;
27744;SDS011;61387;48.112;8.616;2022-12-18T11:54:12;53.73;;;20.37;;
27744;SDS011;61387;48.112;8.616;2022-12-18T11:56:43;49.07;;;19.40;;
27744;SDS011;61387;48.112;8.616;2022-12-18T12:02:27;58.50;;;22.73;;
27744;SDS011;61387;48.112;8.616;2022-12-18T12:07:55;53.50;;;21.97;;
27744;SDS011;61387;48.112;8.616;2022-12-18T12:13:15;57.37;;;22.17;;
27744;SDS011;61387;48.112;8.616;2022-12-18T12:16:15;57.53;;;21.30;;
27744;SDS011;61387;48.112;8.616;2022-12-18T12:21:39;48.23;;;22.30;;
27744;SDS011;61387;48.112;8.616;2022-12-18T12:24:23;48.73;;;20.40;;
27744;SDS011;61387;48.112;8.616;2022-12-18T12:27:13;49.90;;;19.87;;
27744;SDS011;61387;48.112;8.616;2022-12-18T12:32:38;47.97;;;20.03;;
27744;SDS011;61387;48.112;8.616;2022-12-18T12:38:03;49.10;;;20.03;;
27744;SDS011;61387;48.112;8.616;2022-12-18T12:40:31;52.00;;;21.30;;
27744;SDS011;61387;48.112;8.616;2022-12-18T12:43:10;51.57;;;20.80;;
27744;SDS011;61387;48.112;8.616;2022-12-18T12:48:05;54.27;;;21.93;;
27744;SDS011;61387;48.112;8.616;2022-12-18T12:50:38;52.73;;;21.97;;
27744;SDS011;61387;48.112;8.616;2022-12-18T12:53:06;48.90;;;19.70;;
27744;SDS011;61387;48.112;8.616;2022-12-18T12:55:34;58.37;;;22.77;;
27744;SDS011;61387;48.112;8.616;2022-12-18T13:00:54;53.43;;;21.00;;
27744;SDS011;61387;48.112;8.616;2022-12-18T13:06:04;57.73;;;24.13;;
27744;SDS011;61387;48.112;8.616;2022-12-18T13:08:55;48.93;;;19.97;;
27744;SDS011;61387;48.112;8.616;2022-12-18T13:14:33;55.10;;;21.43;;
27744;SDS011;61387;48.112;8.616;2022-12-18T13:17:15;58.97;;;24.33;;
27744;SDS011;61387;48.112;8.616;2022-12-18T13:22:23;56.10;;;21.37;;
27744;SDS011;61387;48.112;8.616;2022-12-18T13:24:53;55.20;;;22.37;;
27744;SDS011;61387;48.112;8.616;2022-12-18T13:38:21;51.97;;;21.80;;
27744;SDS011;61387;48.112;8.616;2022-12-18T13:40:59;51.40;;;20.23;;
27744;SDS011;61387;48.112;8.616;2022-12-18T13:43:56;56.20;;;21.67;;
27744;SDS011;61387;48.112;8.616;2022-12-18T13:46:43;58.60;;;21.57;;
27744;SDS011;61387;48.112;8.616;2022-12-18T13:51:40;60.63;;;23.87;;
27744;SDS011;61387;48.112;8.616;2022-12-18T13:56:51;53.60;;;23.10;;
27744;SDS011;61387;48.112;8.616;2022-12-18T14:01:56;57.80;;;23.37;;
27744;SDS011;61387;48.112;8.616;2022-12-18T14:04:27;61.60;;;24.87;;
27744;SDS011;61387;48.112;8.616;2022-12-18T14:07:00;56.20;;;23.07;;
27744;SDS011;61387;48.112;8.616;2022-12-18T14:12:44;54.87;;;22.90;;
27744;SDS011;61387;48.112;8.616;2022-12-18T14:17:50;54.37;;;22.53;;
27744;SDS011;61387;48.112;8.616;2022-12-18T14:20:24;48.80;;;20.60;;
27744;SDS011;61387;48.112;8.616;2022-12-18T14:22:55;51.30;;;21.90;;
27744;SDS011;61387;48.112;8.616;2022-12-18T14:25:22;53.83;;;22.27;;
27744;SDS011;61387;48.112;8.616;2022-12-18T14:28:02;58.77;;;26.27;;
27744;SDS011;61387;48.112;8.616;2022-12-18T14:30:38;52.33;;;22.70;;
27744;SDS011;61387;48.112;8.616;2022-12-18T14:35:40;54.23;;;21.80;;
27744;SDS011;61387;48.112;8.616;2022-12-18T14:38:11;52.77;;;22.03;;
27744;SDS011;61387;48.112;8.616;2022-12-18T14:40:51;53.30;;;22.13;;
27744;SDS011;61387;48.112;8.616;2022-12-18T14:43:19;57.60;;;23.73;;
27744;SDS011;61387;48.112;8.616;2022-12-18T14:45:45;62.60;;;25.03;;
27744;SDS011;61387;48.112;8.616;2022-12-18T14:50:37;49.03;;;20.63;;
27744;SDS011;61387;48.112;8.616;2022-12-18T14:53:03;56.87;;;22.20;;
27744;SDS011;61387;48.112;8.616;2022-12-18T14:55:32;56.43;;;22.43;;
27744;SDS011;61387;48.112;8.616;2022-12-18T14:57:58;57.10;;;21.57;;
27744;SDS011;61387;48.112;8.616;2022-12-18T15:00:24;55.63;;;22.00;;
27744;SDS011;61387;48.112;8.616;2022-12-18T15:02:54;55.47;;;21.87;;
27744;SDS011;61387;48.112;8.616;2022-12-18T15:05:25;56.73;;;23.30;;
27744;SDS011;61387;48.112;8.616;2022-12-18T15:07:57;58.23;;;22.93;;
27744;SDS011;61387;48.112;8.616;2022-12-18T15:10:33;54.07;;;22.30;;
27744;SDS011;61387;48.112;8.616;2022-12-18T15:20:27;59.57;;;24.80;;
27744;SDS011;61387;48.112;8.616;2022-12-18T15:22:56;62.07;;;23.43;;
27744;SDS011;61387;48.112;8.616;2022-12-18T15:25:32;54.97;;;22.87;;
27744;SDS011;61387;48.112;8.616;2022-12-18T15:28:04;59.57;;;23.80;;
27744;SDS011;61387;48.112;8.616;2022-12-18T15:30:59;53.00;;;21.90;;
27744;SDS011;61387;48.112;8.616;2022-12-18T15:33:26;59.77;;;22.97;;
27744;SDS011;61387;48.112;8.616;2022-12-18T15:35:59;58.43;;;23.27;;
27744;SDS011;61387;48.112;8.616;2022-12-18T15:38:26;59.97;;;23.47;;
27744;SDS011;61387;48.112;8.616;2022-12-18T15:40:52;62.53;;;23.33;;
27744;SDS011;61387;48.112;8.616;2022-12-18T15:43:20;63.23;;;24.47;;
27744;SDS011;61387;48.112;8.616;2022-12-18T15:46:09;64.77;;;26.40;;
27744;SDS011;61387;48.112;8.616;2022-12-18T15:48:39;125.53;;;46.07;;
27744;SDS011;61387;48.112;8.616;2022-12-18T15:53:58;56.20;;;22.27;;
27744;SDS011;61387;48.112;8.616;2022-12-18T15:56:25;65.57;;;24.80;;
27744;SDS011;61387;48.112;8.616;2022-12-18T15:59:11;63.63;;;24.03;;
27744;SDS011;61387;48.112;8.616;2022-12-18T16:01:38;63.97;;;24.10;;
27744;SDS011;61387;48.112;8.616;2022-12-18T16:04:04;66.53;;;24.30;;
27744;SDS011;61387;48.112;8.616;2022-12-18T16:06:30;68.87;;;23.57;;
27744;SDS011;61387;48.112;8.616;2022-12-18T16:08:57;62.10;;;23.67;;
27744;SDS011;61387;48.112;8.616;2022-12-18T16:11:24;63.33;;;22.33;;
27744;SDS011;61387;48.112;8.616;2022-12-18T16:14:11;71.03;;;25.73;;
27744;SDS011;61387;48.112;8.616;2022-12-18T16:16:46;67.60;;;25.67;;
27744;SDS011;61387;48.112;8.616;2022-12-18T16:19:13;73.50;;;27.70;;
27744;SDS011;61387;48.112;8.616;2022-12-18T16:21:39;60.07;;;24.23;;
27744;SDS011;61387;48.112;8.616;2022-12-18T16:24:05;62.77;;;24.53;;
27744;SDS011;61387;48.112;8.616;2022-12-18T16:26:31;61.07;;;24.97;;
27744;SDS011;61387;48.112;8.616;2022-12-18T16:28:57;59.30;;;23.43;;